sensor_id;sensor_type;location;lat;lon;timestamp;temperature;humidity
3660;DHT22;1846;51.482;7.224;2023-03-23T00:01:29;11.70;1.00
3660;DHT22;1846;51.482;7.224;2023-03-23T00:03:58;11.70;1.00
3660;DHT22;1846;51.482;7.224;2023-03-23T00:06:27;11.70;1.00
3660;DHT22;1846;51.482;7.224;2023-03-23T00:08:58;11.70;1.00
3660;DHT22;1846;51.482;7.224;2023-03-23T00:11:30;11.60;1.00
3660;DHT22;1846;51.482;7.224;2023-03-23T00:13:58;11.70;1.00
3660;DHT22;1846;51.482;7.224;2023-03-23T00:16:29;11.70;1.00
3660;DHT22;1846;51.482;7.224;2023-03-23T00:18:59;11.70;1.00
3660;DHT22;1846;51.482;7.224;2023-03-23T00:21:28;11.70;1.00
3660;DHT22;1846;51.482;7.224;2023-03-23T00:24:01;11.70;1.00
3660;DHT22;1846;51.482;7.224;2023-03-23T00:26:29;11.80;1.00
3660;DHT22;1846;51.482;7.224;2023-03-23T00:28:59;11.80;1.00
3660;DHT22;1846;51.482;7.224;2023-03-23T00:31:29;11.80;99.90
3660;DHT22;1846;51.482;7.224;2023-03-23T00:34:02;11.90;99.90
3660;DHT22;1846;51.482;7.224;2023-03-23T00:36:30;11.80;1.00
3660;DHT22;1846;51.482;7.224;2023-03-23T00:38:57;11.80;1.00
3660;DHT22;1846;51.482;7.224;2023-03-23T00:41:25;11.90;1.00
3660;DHT22;1846;51.482;7.224;2023-03-23T00:43:54;11.90;1.00
3660;DHT22;1846;51.482;7.224;2023-03-23T00:46:21;11.90;99.90
3660;DHT22;1846;51.482;7.224;2023-03-23T00:48:50;12.10;1.00
3660;DHT22;1846;51.482;7.224;2023-03-23T00:51:18;12.10;99.90
3660;DHT22;1846;51.482;7.224;2023-03-23T00:53:45;12.10;1.00
3660;DHT22;1846;51.482;7.224;2023-03-23T00:56:13;12.20;99.90
3660;DHT22;1846;51.482;7.224;2023-03-23T00:58:40;12.20;99.90
3660;DHT22;1846;51.482;7.224;2023-03-23T01:01:07;12.20;99.90
3660;DHT22;1846;51.482;7.224;2023-03-23T01:03:35;12.20;99.90
3660;DHT22;1846;51.482;7.224;2023-03-23T01:06:08;12.10;99.90
3660;DHT22;1846;51.482;7.224;2023-03-23T01:08:39;12.10;99.90
3660;DHT22;1846;51.482;7.224;2023-03-23T01:11:13;12.10;99.90
3660;DHT22;1846;51.482;7.224;2023-03-23T01:13:40;12.20;99.90
3660;DHT22;1846;51.482;7.224;2023-03-23T01:16:08;12.20;99.90
3660;DHT22;1846;51.482;7.224;2023-03-23T01:18:35;12.20;99.90
3660;DHT22;1846;51.482;7.224;2023-03-23T01:21:07;12.20;99.90
3660;DHT22;1846;51.482;7.224;2023-03-23T01:23:36;12.20;19.40
3660;DHT22;1846;51.482;7.224;2023-03-23T01:26:04;12.20;70.80
3660;DHT22;1846;51.482;7.224;2023-03-23T01:28:31;12.00;99.90
3660;DHT22;1846;51.482;7.224;2023-03-23T01:31:00;12.00;99.90
3660;DHT22;1846;51.482;7.224;2023-03-23T01:33:27;12.10;99.90
3660;DHT22;1846;51.482;7.224;2023-03-23T01:35:54;12.20;84.90
3660;DHT22;1846;51.482;7.224;2023-03-23T01:38:22;12.00;97.70
3660;DHT22;1846;51.482;7.224;2023-03-23T01:40:49;12.00;99.90
3660;DHT22;1846;51.482;7.224;2023-03-23T01:43:16;12.00;1.00
3660;DHT22;1846;51.482;7.224;2023-03-23T01:45:43;12.10;1.00
3660;DHT22;1846;51.482;7.224;2023-03-23T01:48:14;12.00;99.90
3660;DHT22;1846;51.482;7.224;2023-03-23T01:50:51;12.00;1.00
3660;DHT22;1846;51.482;7.224;2023-03-23T01:53:21;12.00;99.90
3660;DHT22;1846;51.482;7.224;2023-03-23T01:55:50;12.00;1.00
3660;DHT22;1846;51.482;7.224;2023-03-23T01:58:22;12.10;99.90
3660;DHT22;1846;51.482;7.224;2023-03-23T02:00:51;12.10;99.90
3660;DHT22;1846;51.482;7.224;2023-03-23T02:03:19;12.10;99.90
3660;DHT22;1846;51.482;7.224;2023-03-23T02:05:49;12.10;64.80
3660;DHT22;1846;51.482;7.224;2023-03-23T02:08:18;12.20;1.00
3660;DHT22;1846;51.482;7.224;2023-03-23T02:10:46;12.20;1.00
3660;DHT22;1846;51.482;7.224;2023-03-23T02:13:14;12.20;99.90
3660;DHT22;1846;51.482;7.224;2023-03-23T02:15:49;12.20;99.90
3660;DHT22;1846;51.482;7.224;2023-03-23T02:18:28;12.20;99.90
3660;DHT22;1846;51.482;7.224;2023-03-23T02:21:33;12.10;99.90
3660;DHT22;1846;51.482;7.224;2023-03-23T02:27:08;12.20;99.90
3660;DHT22;1846;51.482;7.224;2023-03-23T02:30:00;12.20;1.00
3660;DHT22;1846;51.482;7.224;2023-03-23T02:32:51;12.10;1.00
3660;DHT22;1846;51.482;7.224;2023-03-23T02:35:25;12.20;1.00
3660;DHT22;1846;51.482;7.224;2023-03-23T02:37:59;12.10;1.00
3660;DHT22;1846;51.482;7.224;2023-03-23T02:40:30;12.30;1.00
3660;DHT22;1846;51.482;7.224;2023-03-23T02:43:00;12.20;1.00
3660;DHT22;1846;51.482;7.224;2023-03-23T02:45:30;12.10;8.00
3660;DHT22;1846;51.482;7.224;2023-03-23T02:48:02;12.20;18.50
3660;DHT22;1846;51.482;7.224;2023-03-23T02:50:32;12.10;99.00
3660;DHT22;1846;51.482;7.224;2023-03-23T02:53:01;12.20;19.50
3660;DHT22;1846;51.482;7.224;2023-03-23T02:55:31;12.20;99.90
3660;DHT22;1846;51.482;7.224;2023-03-23T02:57:58;12.20;99.90
3660;DHT22;1846;51.482;7.224;2023-03-23T03:00:28;12.40;1.00
3660;DHT22;1846;51.482;7.224;2023-03-23T03:02:56;12.20;18.30
3660;DHT22;1846;51.482;7.224;2023-03-23T03:05:34;12.30;1.00
3660;DHT22;1846;51.482;7.224;2023-03-23T03:08:10;12.20;1.00
3660;DHT22;1846;51.482;7.224;2023-03-23T03:10:43;12.20;1.00
3660;DHT22;1846;51.482;7.224;2023-03-23T03:13:21;12.20;1.00
3660;DHT22;1846;51.482;7.224;2023-03-23T03:15:53;12.10;1.00
3660;DHT22;1846;51.482;7.224;2023-03-23T03:18:26;12.10;1.00
3660;DHT22;1846;51.482;7.224;2023-03-23T03:20:59;12.10;1.00
3660;DHT22;1846;51.482;7.224;2023-03-23T03:23:28;12.10;2.00
3660;DHT22;1846;51.482;7.224;2023-03-23T03:25:56;12.00;1.00
3660;DHT22;1846;51.482;7.224;2023-03-23T03:28:25;12.10;1.00
3660;DHT22;1846;51.482;7.224;2023-03-23T03:30:54;12.10;1.00
3660;DHT22;1846;51.482;7.224;2023-03-23T03:33:22;12.20;1.00
3660;DHT22;1846;51.482;7.224;2023-03-23T03:35:51;12.20;1.00
3660;DHT22;1846;51.482;7.224;2023-03-23T03:38:21;12.20;1.00
3660;DHT22;1846;51.482;7.224;2023-03-23T03:40:48;12.30;1.00
3660;DHT22;1846;51.482;7.224;2023-03-23T03:43:15;12.40;99.90
3660;DHT22;1846;51.482;7.224;2023-03-23T03:45:42;12.40;99.90
3660;DHT22;1846;51.482;7.224;2023-03-23T03:48:09;12.40;99.90
3660;DHT22;1846;51.482;7.224;2023-03-23T03:50:37;12.40;99.90
3660;DHT22;1846;51.482;7.224;2023-03-23T03:53:05;12.30;99.90
3660;DHT22;1846;51.482;7.224;2023-03-23T03:55:33;12.40;99.90
3660;DHT22;1846;51.482;7.224;2023-03-23T03:58:04;12.30;99.90
3660;DHT22;1846;51.482;7.224;2023-03-23T04:00:31;12.40;99.90
3660;DHT22;1846;51.482;7.224;2023-03-23T04:02:57;12.40;99.90
3660;DHT22;1846;51.482;7.224;2023-03-23T04:05:25;12.50;99.90
3660;DHT22;1846;51.482;7.224;2023-03-23T04:07:54;12.60;99.90
3660;DHT22;1846;51.482;7.224;2023-03-23T04:10:28;12.60;62.60
3660;DHT22;1846;51.482;7.224;2023-03-23T04:12:57;12.40;99.90
3660;DHT22;1846;51.482;7.224;2023-03-23T04:15:24;12.50;99.90
3660;DHT22;1846;51.482;7.224;2023-03-23T04:17:51;12.60;80.50
3660;DHT22;1846;51.482;7.224;2023-03-23T04:20:18;12.70;22.70
3660;DHT22;1846;51.482;7.224;2023-03-23T04:22:45;12.80;1.00
3660;DHT22;1846;51.482;7.224;2023-03-23T04:25:16;12.80;1.00
3660;DHT22;1846;51.482;7.224;2023-03-23T04:27:47;12.70;1.00
3660;DHT22;1846;51.482;7.224;2023-03-23T04:30:20;12.60;1.00
3660;DHT22;1846;51.482;7.224;2023-03-23T04:32:48;12.60;9.00
3660;DHT22;1846;51.482;7.224;2023-03-23T04:35:18;12.70;1.00
3660;DHT22;1846;51.482;7.224;2023-03-23T04:37:46;12.70;1.00
3660;DHT22;1846;51.482;7.224;2023-03-23T04:40:14;12.80;1.00
3660;DHT22;1846;51.482;7.224;2023-03-23T04:42:41;12.80;1.00
3660;DHT22;1846;51.482;7.224;2023-03-23T04:45:12;12.80;1.00
3660;DHT22;1846;51.482;7.224;2023-03-23T04:47:42;12.70;1.00
3660;DHT22;1846;51.482;7.224;2023-03-23T04:50:19;12.70;1.00
3660;DHT22;1846;51.482;7.224;2023-03-23T04:52:49;12.70;1.00
3660;DHT22;1846;51.482;7.224;2023-03-23T04:55:17;12.70;1.00
3660;DHT22;1846;51.482;7.224;2023-03-23T04:57:44;12.90;1.00
3660;DHT22;1846;51.482;7.224;2023-03-23T05:00:12;12.80;1.00
3660;DHT22;1846;51.482;7.224;2023-03-23T05:02:44;12.70;1.00
3660;DHT22;1846;51.482;7.224;2023-03-23T05:05:13;12.80;1.00
3660;DHT22;1846;51.482;7.224;2023-03-23T05:07:41;12.80;1.00
3660;DHT22;1846;51.482;7.224;2023-03-23T05:10:10;12.80;1.00
3660;DHT22;1846;51.482;7.224;2023-03-23T05:12:38;12.70;1.00
3660;DHT22;1846;51.482;7.224;2023-03-23T05:15:06;12.90;1.00
3660;DHT22;1846;51.482;7.224;2023-03-23T05:17:34;12.90;1.00
3660;DHT22;1846;51.482;7.224;2023-03-23T05:20:04;13.00;1.00
3660;DHT22;1846;51.482;7.224;2023-03-23T05:22:33;12.90;1.00
3660;DHT22;1846;51.482;7.224;2023-03-23T05:25:02;12.90;1.00
3660;DHT22;1846;51.482;7.224;2023-03-23T05:27:29;12.90;1.00
3660;DHT22;1846;51.482;7.224;2023-03-23T05:29:56;13.10;1.00
3660;DHT22;1846;51.482;7.224;2023-03-23T05:32:23;13.10;1.00
3660;DHT22;1846;51.482;7.224;2023-03-23T05:34:54;13.10;1.00
3660;DHT22;1846;51.482;7.224;2023-03-23T05:37:23;13.00;1.00
3660;DHT22;1846;51.482;7.224;2023-03-23T05:39:50;13.00;1.00
3660;DHT22;1846;51.482;7.224;2023-03-23T05:42:19;13.00;1.00
3660;DHT22;1846;51.482;7.224;2023-03-23T05:44:46;13.10;1.00
3660;DHT22;1846;51.482;7.224;2023-03-23T05:47:13;13.00;1.00
3660;DHT22;1846;51.482;7.224;2023-03-23T05:49:40;13.30;1.00
3660;DHT22;1846;51.482;7.224;2023-03-23T05:52:27;13.30;1.00
3660;DHT22;1846;51.482;7.224;2023-03-23T05:54:58;13.10;1.00
3660;DHT22;1846;51.482;7.224;2023-03-23T05:57:25;13.00;1.00
3660;DHT22;1846;51.482;7.224;2023-03-23T05:59:52;13.00;1.00
3660;DHT22;1846;51.482;7.224;2023-03-23T06:02:19;13.00;1.00
3660;DHT22;1846;51.482;7.224;2023-03-23T06:04:46;12.90;1.00
3660;DHT22;1846;51.482;7.224;2023-03-23T06:07:14;13.00;1.00
3660;DHT22;1846;51.482;7.224;2023-03-23T06:09:46;13.10;1.00
3660;DHT22;1846;51.482;7.224;2023-03-23T06:12:13;13.10;1.00
3660;DHT22;1846;51.482;7.224;2023-03-23T06:14:40;13.10;1.00
3660;DHT22;1846;51.482;7.224;2023-03-23T06:17:10;13.10;1.00
3660;DHT22;1846;51.482;7.224;2023-03-23T06:19:39;13.10;1.00
3660;DHT22;1846;51.482;7.224;2023-03-23T06:22:09;13.40;1.00
3660;DHT22;1846;51.482;7.224;2023-03-23T06:24:40;13.30;1.00
3660;DHT22;1846;51.482;7.224;2023-03-23T06:27:10;13.30;1.00
3660;DHT22;1846;51.482;7.224;2023-03-23T06:29:39;13.30;1.00
3660;DHT22;1846;51.482;7.224;2023-03-23T06:32:07;13.30;1.00
3660;DHT22;1846;51.482;7.224;2023-03-23T06:34:34;13.30;1.00
3660;DHT22;1846;51.482;7.224;2023-03-23T06:37:02;13.20;1.00
3660;DHT22;1846;51.482;7.224;2023-03-23T06:39:32;13.20;1.00
3660;DHT22;1846;51.482;7.224;2023-03-23T06:42:00;13.30;1.00
3660;DHT22;1846;51.482;7.224;2023-03-23T06:44:29;13.30;1.00
3660;DHT22;1846;51.482;7.224;2023-03-23T06:46:58;13.30;1.00
3660;DHT22;1846;51.482;7.224;2023-03-23T06:49:34;13.40;1.00
3660;DHT22;1846;51.482;7.224;2023-03-23T06:52:04;13.40;1.00
3660;DHT22;1846;51.482;7.224;2023-03-23T06:54:33;13.40;1.00
3660;DHT22;1846;51.482;7.224;2023-03-23T06:57:02;13.50;1.00
3660;DHT22;1846;51.482;7.224;2023-03-23T06:59:51;13.40;1.00
3660;DHT22;1846;51.482;7.224;2023-03-23T07:02:21;13.50;1.00
3660;DHT22;1846;51.482;7.224;2023-03-23T07:04:54;13.40;1.00
3660;DHT22;1846;51.482;7.224;2023-03-23T07:07:31;13.60;99.90
3660;DHT22;1846;51.482;7.224;2023-03-23T07:09:58;13.40;1.00
3660;DHT22;1846;51.482;7.224;2023-03-23T07:12:27;13.50;99.90
3660;DHT22;1846;51.482;7.224;2023-03-23T07:14:56;13.60;99.90
3660;DHT22;1846;51.482;7.224;2023-03-23T07:17:24;13.60;99.90
3660;DHT22;1846;51.482;7.224;2023-03-23T07:19:52;13.60;99.90
3660;DHT22;1846;51.482;7.224;2023-03-23T07:22:19;13.50;99.90
3660;DHT22;1846;51.482;7.224;2023-03-23T07:24:47;13.50;99.90
3660;DHT22;1846;51.482;7.224;2023-03-23T07:27:15;13.60;99.90
3660;DHT22;1846;51.482;7.224;2023-03-23T07:29:44;13.80;99.90
3660;DHT22;1846;51.482;7.224;2023-03-23T07:32:18;13.60;99.90
3660;DHT22;1846;51.482;7.224;2023-03-23T07:34:50;13.70;99.90
3660;DHT22;1846;51.482;7.224;2023-03-23T07:37:17;13.80;99.90
3660;DHT22;1846;51.482;7.224;2023-03-23T07:39:49;13.70;99.90
3660;DHT22;1846;51.482;7.224;2023-03-23T07:42:21;13.60;99.90
3660;DHT22;1846;51.482;7.224;2023-03-23T07:44:48;13.60;99.90
3660;DHT22;1846;51.482;7.224;2023-03-23T07:47:20;13.60;99.90
3660;DHT22;1846;51.482;7.224;2023-03-23T07:50:53;13.60;99.90
3660;DHT22;1846;51.482;7.224;2023-03-23T07:52:54;13.70;99.90
3660;DHT22;1846;51.482;7.224;2023-03-23T07:55:25;13.80;99.90
3660;DHT22;1846;51.482;7.224;2023-03-23T07:57:53;13.80;99.90
3660;DHT22;1846;51.482;7.224;2023-03-23T08:00:34;13.70;99.90
3660;DHT22;1846;51.482;7.224;2023-03-23T08:06:20;13.80;99.90
3660;DHT22;1846;51.482;7.224;2023-03-23T08:09:02;13.80;99.90
3660;DHT22;1846;51.482;7.224;2023-03-23T08:12:03;13.90;99.90
3660;DHT22;1846;51.482;7.224;2023-03-23T08:15:56;13.70;99.90
3660;DHT22;1846;51.482;7.224;2023-03-23T08:18:25;13.80;99.90
3660;DHT22;1846;51.482;7.224;2023-03-23T08:20:53;14.00;99.90
3660;DHT22;1846;51.482;7.224;2023-03-23T08:23:59;13.90;99.90
3660;DHT22;1846;51.482;7.224;2023-03-23T08:26:32;14.00;99.90
3660;DHT22;1846;51.482;7.224;2023-03-23T08:29:03;14.00;99.90
3660;DHT22;1846;51.482;7.224;2023-03-23T08:31:31;14.10;99.90
3660;DHT22;1846;51.482;7.224;2023-03-23T08:33:59;14.10;99.90
3660;DHT22;1846;51.482;7.224;2023-03-23T08:36:27;14.20;99.90
3660;DHT22;1846;51.482;7.224;2023-03-23T08:39:11;14.10;99.90
3660;DHT22;1846;51.482;7.224;2023-03-23T08:41:41;14.10;99.90
3660;DHT22;1846;51.482;7.224;2023-03-23T08:44:09;14.20;99.90
3660;DHT22;1846;51.482;7.224;2023-03-23T08:46:36;14.10;99.90
3660;DHT22;1846;51.482;7.224;2023-03-23T08:49:03;14.20;99.90
3660;DHT22;1846;51.482;7.224;2023-03-23T08:51:31;14.30;99.90
3660;DHT22;1846;51.482;7.224;2023-03-23T08:54:05;14.30;99.90
3660;DHT22;1846;51.482;7.224;2023-03-23T08:56:34;14.30;99.90
3660;DHT22;1846;51.482;7.224;2023-03-23T08:59:01;14.20;99.90
3660;DHT22;1846;51.482;7.224;2023-03-23T09:01:29;14.30;99.90
3660;DHT22;1846;51.482;7.224;2023-03-23T09:03:56;14.40;99.90
3660;DHT22;1846;51.482;7.224;2023-03-23T09:06:24;14.50;99.90
3660;DHT22;1846;51.482;7.224;2023-03-23T09:08:51;14.40;99.90
3660;DHT22;1846;51.482;7.224;2023-03-23T09:11:19;14.40;99.90
3660;DHT22;1846;51.482;7.224;2023-03-23T09:13:46;14.50;99.90
3660;DHT22;1846;51.482;7.224;2023-03-23T09:16:13;14.60;99.90
3660;DHT22;1846;51.482;7.224;2023-03-23T09:18:55;14.40;99.90
3660;DHT22;1846;51.482;7.224;2023-03-23T09:21:47;14.40;99.90
3660;DHT22;1846;51.482;7.224;2023-03-23T09:24:23;14.40;99.90
3660;DHT22;1846;51.482;7.224;2023-03-23T09:26:54;14.60;99.90
3660;DHT22;1846;51.482;7.224;2023-03-23T09:29:21;14.70;99.90
3660;DHT22;1846;51.482;7.224;2023-03-23T09:31:48;14.50;99.90
3660;DHT22;1846;51.482;7.224;2023-03-23T09:34:17;14.60;99.90
3660;DHT22;1846;51.482;7.224;2023-03-23T09:36:44;14.50;99.90
3660;DHT22;1846;51.482;7.224;2023-03-23T09:39:15;14.30;99.90
3660;DHT22;1846;51.482;7.224;2023-03-23T09:41:58;14.40;99.90
3660;DHT22;1846;51.482;7.224;2023-03-23T09:44:33;14.30;99.90
3660;DHT22;1846;51.482;7.224;2023-03-23T09:47:11;14.20;99.90
3660;DHT22;1846;51.482;7.224;2023-03-23T09:49:42;14.30;99.90
3660;DHT22;1846;51.482;7.224;2023-03-23T09:52:19;14.50;99.90
3660;DHT22;1846;51.482;7.224;2023-03-23T09:54:49;14.50;99.90
3660;DHT22;1846;51.482;7.224;2023-03-23T10:00:36;14.40;99.90
3660;DHT22;1846;51.482;7.224;2023-03-23T10:03:09;14.50;99.90
3660;DHT22;1846;51.482;7.224;2023-03-23T10:05:40;14.50;99.90
3660;DHT22;1846;51.482;7.224;2023-03-23T10:08:11;14.60;99.90
3660;DHT22;1846;51.482;7.224;2023-03-23T10:14:12;13.90;99.90
3660;DHT22;1846;51.482;7.224;2023-03-23T10:16:46;13.80;99.90
3660;DHT22;1846;51.482;7.224;2023-03-23T10:19:20;13.40;99.90
3660;DHT22;1846;51.482;7.224;2023-03-23T10:21:51;13.00;1.00
3660;DHT22;1846;51.482;7.224;2023-03-23T10:24:21;12.40;1.00
3660;DHT22;1846;51.482;7.224;2023-03-23T10:26:57;12.10;1.00
3660;DHT22;1846;51.482;7.224;2023-03-23T10:32:12;11.40;99.90
3660;DHT22;1846;51.482;7.224;2023-03-23T10:34:43;11.40;1.00
3660;DHT22;1846;51.482;7.224;2023-03-23T10:37:13;11.30;1.00
3660;DHT22;1846;51.482;7.224;2023-03-23T10:39:47;11.20;39.50
3660;DHT22;1846;51.482;7.224;2023-03-23T10:42:22;11.00;1.00
3660;DHT22;1846;51.482;7.224;2023-03-23T10:44:50;10.90;1.00
3660;DHT22;1846;51.482;7.224;2023-03-23T10:47:19;10.90;49.80
3660;DHT22;1846;51.482;7.224;2023-03-23T10:49:49;11.00;99.90
3660;DHT22;1846;51.482;7.224;2023-03-23T10:55:58;11.00;99.90
3660;DHT22;1846;51.482;7.224;2023-03-23T10:58:27;11.10;99.90
3660;DHT22;1846;51.482;7.224;2023-03-23T11:00:56;11.20;1.00
3660;DHT22;1846;51.482;7.224;2023-03-23T11:03:34;11.10;99.90
3660;DHT22;1846;51.482;7.224;2023-03-23T11:06:05;11.20;99.90
3660;DHT22;1846;51.482;7.224;2023-03-23T11:11:19;11.50;1.00
3660;DHT22;1846;51.482;7.224;2023-03-23T11:13:49;11.40;24.40
3660;DHT22;1846;51.482;7.224;2023-03-23T11:16:24;11.40;99.90
3660;DHT22;1846;51.482;7.224;2023-03-23T11:18:53;11.60;1.00
3660;DHT22;1846;51.482;7.224;2023-03-23T11:23:53;11.50;99.90
3660;DHT22;1846;51.482;7.224;2023-03-23T11:26:27;11.50;99.90
3660;DHT22;1846;51.482;7.224;2023-03-23T11:28:58;11.40;99.90
3660;DHT22;1846;51.482;7.224;2023-03-23T11:31:28;11.20;99.90
3660;DHT22;1846;51.482;7.224;2023-03-23T11:34:01;11.20;99.90
3660;DHT22;1846;51.482;7.224;2023-03-23T11:36:32;11.20;99.90
3660;DHT22;1846;51.482;7.224;2023-03-23T11:39:16;11.20;1.00
3660;DHT22;1846;51.482;7.224;2023-03-23T11:41:44;11.30;99.90
3660;DHT22;1846;51.482;7.224;2023-03-23T11:46:57;11.10;99.90
3660;DHT22;1846;51.482;7.224;2023-03-23T11:52:08;11.20;99.90
3660;DHT22;1846;51.482;7.224;2023-03-23T11:54:44;11.30;1.00
3660;DHT22;1846;51.482;7.224;2023-03-23T11:57:14;11.20;1.00
3660;DHT22;1846;51.482;7.224;2023-03-23T11:59:42;11.20;1.00
3660;DHT22;1846;51.482;7.224;2023-03-23T12:04:03;11.10;1.00
3660;DHT22;1846;51.482;7.224;2023-03-23T12:05:45;11.10;99.90
3660;DHT22;1846;51.482;7.224;2023-03-23T12:08:28;11.10;1.20
3660;DHT22;1846;51.482;7.224;2023-03-23T12:11:07;11.10;1.00
3660;DHT22;1846;51.482;7.224;2023-03-23T12:13:48;11.20;99.90
3660;DHT22;1846;51.482;7.224;2023-03-23T12:16:28;11.20;99.90
3660;DHT22;1846;51.482;7.224;2023-03-23T12:19:10;11.40;1.00
3660;DHT22;1846;51.482;7.224;2023-03-23T12:21:47;11.50;1.00
3660;DHT22;1846;51.482;7.224;2023-03-23T12:24:33;11.60;99.90
3660;DHT22;1846;51.482;7.224;2023-03-23T12:27:08;11.50;45.10
3660;DHT22;1846;51.482;7.224;2023-03-23T12:30:00;11.50;1.00
3660;DHT22;1846;51.482;7.224;2023-03-23T12:32:50;11.50;1.00
3660;DHT22;1846;51.482;7.224;2023-03-23T12:35:32;11.30;99.90
3660;DHT22;1846;51.482;7.224;2023-03-23T12:38:12;11.30;1.00
3660;DHT22;1846;51.482;7.224;2023-03-23T12:40:58;11.30;58.10
3660;DHT22;1846;51.482;7.224;2023-03-23T12:43:31;11.30;86.10
3660;DHT22;1846;51.482;7.224;2023-03-23T12:46:29;11.40;99.90
3660;DHT22;1846;51.482;7.224;2023-03-23T12:49:04;11.30;1.00
3660;DHT22;1846;51.482;7.224;2023-03-23T12:51:35;11.50;1.00
3660;DHT22;1846;51.482;7.224;2023-03-23T12:54:09;11.50;1.00
3660;DHT22;1846;51.482;7.224;2023-03-23T12:56:42;11.40;1.00
3660;DHT22;1846;51.482;7.224;2023-03-23T12:59:15;11.60;1.00
3660;DHT22;1846;51.482;7.224;2023-03-23T13:01:48;11.70;1.00
3660;DHT22;1846;51.482;7.224;2023-03-23T13:04:23;11.60;1.00
3660;DHT22;1846;51.482;7.224;2023-03-23T13:10:03;11.80;1.00
3660;DHT22;1846;51.482;7.224;2023-03-23T13:12:36;11.90;1.00
3660;DHT22;1846;51.482;7.224;2023-03-23T13:15:18;11.80;1.00
3660;DHT22;1846;51.482;7.224;2023-03-23T13:18:00;11.90;1.00
3660;DHT22;1846;51.482;7.224;2023-03-23T13:20:45;11.90;1.00
3660;DHT22;1846;51.482;7.224;2023-03-23T13:23:20;12.00;1.00
3660;DHT22;1846;51.482;7.224;2023-03-23T13:25:54;12.00;1.00
3660;DHT22;1846;51.482;7.224;2023-03-23T13:28:34;12.00;99.90
3660;DHT22;1846;51.482;7.224;2023-03-23T13:31:14;11.90;99.90
3660;DHT22;1846;51.482;7.224;2023-03-23T13:33:49;12.00;99.90
3660;DHT22;1846;51.482;7.224;2023-03-23T13:36:30;12.10;99.90
3660;DHT22;1846;51.482;7.224;2023-03-23T13:38:59;12.10;1.00
3660;DHT22;1846;51.482;7.224;2023-03-23T13:41:29;12.20;99.90
3660;DHT22;1846;51.482;7.224;2023-03-23T13:44:18;12.30;1.00
3660;DHT22;1846;51.482;7.224;2023-03-23T13:47:04;12.40;21.00
3660;DHT22;1846;51.482;7.224;2023-03-23T13:49:32;12.50;99.90
3660;DHT22;1846;51.482;7.224;2023-03-23T13:52:14;12.40;99.90
3660;DHT22;1846;51.482;7.224;2023-03-23T13:54:46;12.40;99.90
3660;DHT22;1846;51.482;7.224;2023-03-23T13:57:25;12.50;1.00
3660;DHT22;1846;51.482;7.224;2023-03-23T14:00:08;12.60;1.00
3660;DHT22;1846;51.482;7.224;2023-03-23T14:02:38;12.80;1.00
3660;DHT22;1846;51.482;7.224;2023-03-23T14:05:22;12.70;99.90
3660;DHT22;1846;51.482;7.224;2023-03-23T14:07:54;12.80;99.90
3660;DHT22;1846;51.482;7.224;2023-03-23T14:10:21;12.80;98.20
3660;DHT22;1846;51.482;7.224;2023-03-23T14:12:52;12.80;1.00
3660;DHT22;1846;51.482;7.224;2023-03-23T14:15:21;12.90;1.00
3660;DHT22;1846;51.482;7.224;2023-03-23T14:18:03;12.90;30.00
3660;DHT22;1846;51.482;7.224;2023-03-23T14:20:41;13.00;99.90
3660;DHT22;1846;51.482;7.224;2023-03-23T14:23:15;13.10;1.00
3660;DHT22;1846;51.482;7.224;2023-03-23T14:25:42;13.20;53.30
3660;DHT22;1846;51.482;7.224;2023-03-23T14:28:19;13.40;99.90
3660;DHT22;1846;51.482;7.224;2023-03-23T14:30:51;13.50;33.10
3660;DHT22;1846;51.482;7.224;2023-03-23T14:33:20;13.70;81.70
3660;DHT22;1846;51.482;7.224;2023-03-23T14:35:53;13.80;1.00
3660;DHT22;1846;51.482;7.224;2023-03-23T14:38:22;13.80;1.00
3660;DHT22;1846;51.482;7.224;2023-03-23T14:40:52;13.80;1.00
3660;DHT22;1846;51.482;7.224;2023-03-23T14:43:22;13.90;1.00
3660;DHT22;1846;51.482;7.224;2023-03-23T14:45:55;13.90;1.00
3660;DHT22;1846;51.482;7.224;2023-03-23T14:48:22;14.00;94.20
3660;DHT22;1846;51.482;7.224;2023-03-23T14:50:51;14.30;93.60
3660;DHT22;1846;51.482;7.224;2023-03-23T14:53:21;14.40;99.90
3660;DHT22;1846;51.482;7.224;2023-03-23T14:55:52;14.60;99.90
3660;DHT22;1846;51.482;7.224;2023-03-23T14:58:20;14.80;99.90
3660;DHT22;1846;51.482;7.224;2023-03-23T15:00:54;14.90;99.90
3660;DHT22;1846;51.482;7.224;2023-03-23T15:03:22;15.00;1.00
3660;DHT22;1846;51.482;7.224;2023-03-23T15:05:53;15.00;1.00
3660;DHT22;1846;51.482;7.224;2023-03-23T15:08:24;14.80;1.00
3660;DHT22;1846;51.482;7.224;2023-03-23T15:11:02;14.90;1.00
3660;DHT22;1846;51.482;7.224;2023-03-23T15:13:30;14.70;1.00
3660;DHT22;1846;51.482;7.224;2023-03-23T15:16:04;14.70;1.00
3660;DHT22;1846;51.482;7.224;2023-03-23T15:18:35;14.60;1.00
3660;DHT22;1846;51.482;7.224;2023-03-23T15:21:11;14.60;1.00
3660;DHT22;1846;51.482;7.224;2023-03-23T15:23:43;14.60;1.00
3660;DHT22;1846;51.482;7.224;2023-03-23T15:26:29;14.70;1.00
3660;DHT22;1846;51.482;7.224;2023-03-23T15:29:23;14.70;1.00
3660;DHT22;1846;51.482;7.224;2023-03-23T15:31:54;14.80;1.00
3660;DHT22;1846;51.482;7.224;2023-03-23T15:34:28;15.00;1.00
3660;DHT22;1846;51.482;7.224;2023-03-23T15:36:57;15.30;99.90
3660;DHT22;1846;51.482;7.224;2023-03-23T15:39:25;15.50;99.90
3660;DHT22;1846;51.482;7.224;2023-03-23T15:41:53;15.50;99.90
3660;DHT22;1846;51.482;7.224;2023-03-23T15:44:24;15.60;99.90
3660;DHT22;1846;51.482;7.224;2023-03-23T15:47:01;15.70;99.90
3660;DHT22;1846;51.482;7.224;2023-03-23T15:49:28;15.80;99.90
3660;DHT22;1846;51.482;7.224;2023-03-23T15:51:55;15.80;99.90
3660;DHT22;1846;51.482;7.224;2023-03-23T15:54:22;15.70;99.90
3660;DHT22;1846;51.482;7.224;2023-03-23T15:56:49;15.80;99.90
3660;DHT22;1846;51.482;7.224;2023-03-23T15:59:18;15.60;99.90
3660;DHT22;1846;51.482;7.224;2023-03-23T16:01:45;15.60;99.90
3660;DHT22;1846;51.482;7.224;2023-03-23T16:04:16;15.50;99.90
3660;DHT22;1846;51.482;7.224;2023-03-23T16:06:44;15.40;99.90
3660;DHT22;1846;51.482;7.224;2023-03-23T16:09:13;15.40;99.90
3660;DHT22;1846;51.482;7.224;2023-03-23T16:11:41;15.20;99.90
3660;DHT22;1846;51.482;7.224;2023-03-23T16:14:08;15.20;99.90
3660;DHT22;1846;51.482;7.224;2023-03-23T16:16:37;14.90;99.90
3660;DHT22;1846;51.482;7.224;2023-03-23T16:19:05;15.00;99.90
3660;DHT22;1846;51.482;7.224;2023-03-23T16:21:33;15.00;99.90
3660;DHT22;1846;51.482;7.224;2023-03-23T16:24:00;14.90;99.90
3660;DHT22;1846;51.482;7.224;2023-03-23T16:26:28;14.80;99.90
3660;DHT22;1846;51.482;7.224;2023-03-23T16:28:54;14.80;99.90
3660;DHT22;1846;51.482;7.224;2023-03-23T16:31:21;14.60;99.90
3660;DHT22;1846;51.482;7.224;2023-03-23T16:33:50;14.70;99.90
3660;DHT22;1846;51.482;7.224;2023-03-23T16:36:19;14.70;99.90
3660;DHT22;1846;51.482;7.224;2023-03-23T16:38:47;14.80;99.90
3660;DHT22;1846;51.482;7.224;2023-03-23T16:41:15;14.90;99.90
3660;DHT22;1846;51.482;7.224;2023-03-23T16:43:42;14.90;99.90
3660;DHT22;1846;51.482;7.224;2023-03-23T16:46:10;14.90;99.90
3660;DHT22;1846;51.482;7.224;2023-03-23T16:48:38;14.80;99.90
3660;DHT22;1846;51.482;7.224;2023-03-23T16:51:05;14.80;99.90
3660;DHT22;1846;51.482;7.224;2023-03-23T16:53:32;14.70;99.90
3660;DHT22;1846;51.482;7.224;2023-03-23T16:56:02;14.60;99.90
3660;DHT22;1846;51.482;7.224;2023-03-23T16:58:29;14.50;99.90
3660;DHT22;1846;51.482;7.224;2023-03-23T17:00:56;14.70;99.90
3660;DHT22;1846;51.482;7.224;2023-03-23T17:03:23;14.70;99.90
3660;DHT22;1846;51.482;7.224;2023-03-23T17:05:51;14.60;99.90
3660;DHT22;1846;51.482;7.224;2023-03-23T17:08:19;14.60;99.90
3660;DHT22;1846;51.482;7.224;2023-03-23T17:10:46;14.50;99.90
3660;DHT22;1846;51.482;7.224;2023-03-23T17:13:15;14.40;1.00